createdAt,value
2023-04-06T00:00:50.045Z,8.53
2023-04-06T00:03:17.022Z,8.10
2023-04-06T00:05:43.962Z,8.50
2023-04-06T00:08:11.057Z,8.43
2023-04-06T00:10:37.884Z,8.07
2023-04-06T00:13:04.772Z,8.37
2023-04-06T00:15:32.120Z,8.67
2023-04-06T00:17:59.048Z,8.20
2023-04-06T00:20:26.379Z,8.60
2023-04-06T00:22:53.180Z,8.37
2023-04-06T00:25:20.007Z,8.57
2023-04-06T00:27:46.856Z,8.33
2023-04-06T00:30:13.759Z,9.10
2023-04-06T00:32:44.329Z,8.27
2023-04-06T00:35:11.604Z,9.20
2023-04-06T00:37:38.401Z,8.43
2023-04-06T00:40:05.670Z,8.43
2023-04-06T00:42:32.503Z,8.20
2023-04-06T00:45:00.771Z,8.63
2023-04-06T00:47:28.215Z,8.80
2023-04-06T00:49:55.555Z,8.93
2023-04-06T00:52:22.441Z,9.53
2023-04-06T00:54:50.585Z,8.73
2023-04-06T00:57:19.965Z,9.17
2023-04-06T00:59:53.066Z,9.60
2023-04-06T01:02:20.148Z,8.60
2023-04-06T01:04:49.889Z,8.57
2023-04-06T01:07:25.945Z,8.63
2023-04-06T01:10:25.797Z,8.07
2023-04-06T01:12:56.815Z,8.87
2023-04-06T01:15:42.507Z,9.00
2023-04-06T01:18:12.804Z,9.27
2023-04-06T01:20:46.856Z,9.03
2023-04-06T01:23:15.802Z,8.90
2023-04-06T01:25:46.715Z,8.93
2023-04-06T01:28:13.576Z,9.20
2023-04-06T01:30:54.865Z,9.13
2023-04-06T01:33:40.178Z,8.23
2023-04-06T01:36:10.623Z,8.63
2023-04-06T01:38:37.493Z,9.07
2023-04-06T01:41:04.597Z,9.13
2023-04-06T01:43:41.568Z,9.20
2023-04-06T01:46:10.686Z,10.23
2023-04-06T01:48:41.224Z,9.93
2023-04-06T01:51:32.061Z,9.40
2023-04-06T01:54:01.626Z,9.90
2023-04-06T01:56:43.634Z,9.30
2023-04-06T01:59:24.791Z,9.87
2023-04-06T02:01:51.858Z,10.27
2023-04-06T02:04:19.052Z,9.10
2023-04-06T02:06:48.991Z,10.47
2023-04-06T02:09:20.515Z,9.00
2023-04-06T02:11:47.286Z,9.00
2023-04-06T02:14:14.266Z,9.60
2023-04-06T02:16:47.124Z,9.20
2023-04-06T02:19:14.120Z,9.20
2023-04-06T02:21:40.994Z,8.97
2023-04-06T02:24:07.920Z,9.47
2023-04-06T02:26:35.150Z,9.87
2023-04-06T02:29:03.370Z,8.77
2023-04-06T02:31:30.324Z,8.47
2023-04-06T02:33:57.229Z,9.37
2023-04-06T02:36:24.104Z,8.90
2023-04-06T02:38:52.929Z,9.13
2023-04-06T02:41:20.006Z,9.63
2023-04-06T02:43:46.869Z,9.07
2023-04-06T02:46:26.020Z,9.20
2023-04-06T02:48:52.913Z,9.17
2023-04-06T02:51:20.186Z,8.87
2023-04-06T02:53:52.595Z,9.07
2023-04-06T02:56:20.215Z,8.83
2023-04-06T02:58:51.113Z,9.93
2023-04-06T03:01:23.916Z,9.13
2023-04-06T03:03:56.766Z,9.17
2023-04-06T03:06:26.381Z,8.73
2023-04-06T03:08:57.470Z,8.60
2023-04-06T03:11:25.036Z,8.47
2023-04-06T03:13:53.180Z,8.87
2023-04-06T03:16:21.380Z,8.67
2023-04-06T03:18:48.677Z,8.57
2023-04-06T03:21:16.577Z,9.07
2023-04-06T03:23:52.292Z,8.43
2023-04-06T03:26:19.780Z,8.07
2023-04-06T03:28:46.580Z,7.77
2023-04-06T03:31:14.903Z,7.50
2023-04-06T03:34:02.791Z,7.50
2023-04-06T03:36:35.611Z,8.43
2023-04-06T03:39:04.062Z,7.73
2023-04-06T03:41:34.117Z,7.53
2023-04-06T03:44:07.286Z,8.27
2023-04-06T03:46:34.132Z,8.47
2023-04-06T03:49:01.608Z,8.10
2023-04-06T03:51:29.118Z,7.93
2023-04-06T03:53:55.952Z,7.47
2023-04-06T03:56:22.825Z,8.00
2023-04-06T03:58:52.583Z,7.50
2023-04-06T04:01:21.512Z,8.20
2023-04-06T04:03:50.969Z,7.23
2023-04-06T04:06:18.435Z,7.87
2023-04-06T04:08:46.186Z,7.20
2023-04-06T04:11:12.910Z,8.67
2023-04-06T04:13:39.915Z,6.97
2023-04-06T04:16:09.152Z,8.33
2023-04-06T04:18:36.296Z,7.90
2023-04-06T04:21:03.056Z,7.50
2023-04-06T04:23:30.137Z,7.53
2023-04-06T04:25:57.313Z,9.10
2023-04-06T04:28:24.216Z,8.47
2023-04-06T04:30:54.722Z,8.50
2023-04-06T04:33:22.410Z,8.07
2023-04-06T04:35:52.279Z,8.50
2023-04-06T04:38:21.765Z,8.20
2023-04-06T04:40:52.647Z,9.07
2023-04-06T04:43:20.424Z,8.87
2023-04-06T04:45:47.909Z,8.57
2023-04-06T04:48:37.470Z,8.93
2023-04-06T04:51:07.054Z,9.53
2023-04-06T04:54:02.980Z,8.67
2023-04-06T04:56:32.246Z,7.73
2023-04-06T04:59:15.883Z,8.53
2023-04-06T05:01:55.282Z,8.63
2023-04-06T05:04:28.260Z,8.27
2023-04-06T05:07:05.021Z,8.73
2023-04-06T05:09:33.109Z,8.27
2023-04-06T05:12:01.342Z,8.23
2023-04-06T05:14:30.909Z,9.00
2023-04-06T05:16:59.438Z,8.67
2023-04-06T05:19:27.348Z,8.43
2023-04-06T05:21:54.365Z,7.93
2023-04-06T05:24:21.237Z,8.80
2023-04-06T05:26:49.392Z,8.63
2023-04-06T05:29:22.476Z,8.60
2023-04-06T05:31:49.763Z,8.73
2023-04-06T05:34:16.974Z,7.80
2023-04-06T05:36:43.824Z,8.23
2023-04-06T05:39:21.872Z,8.23
2023-04-06T05:41:51.489Z,8.20
2023-04-06T05:44:28.171Z,8.30
2023-04-06T05:47:03.623Z,8.43
2023-04-06T05:49:30.791Z,7.70
2023-04-06T05:51:57.606Z,8.47
2023-04-06T05:54:24.554Z,8.23
2023-04-06T05:56:55.248Z,8.30
2023-04-06T05:59:22.267Z,7.73
2023-04-06T06:01:49.685Z,8.40
2023-04-06T06:04:17.573Z,8.53
2023-04-06T06:06:45.896Z,7.90
2023-04-06T06:09:18.730Z,8.80
2023-04-06T06:11:55.829Z,8.33
2023-04-06T06:14:26.088Z,8.60
2023-04-06T06:16:52.889Z,8.83
2023-04-06T06:19:20.083Z,8.63
2023-04-06T06:21:47.646Z,7.83
2023-04-06T06:24:15.493Z,8.63
2023-04-06T06:26:42.572Z,8.37
2023-04-06T06:29:11.803Z,8.00
2023-04-06T06:31:40.316Z,8.70
2023-04-06T06:34:07.392Z,8.77
2023-04-06T06:36:37.484Z,9.30
2023-04-06T06:39:08.265Z,10.97
2023-04-06T06:41:35.486Z,9.17
2023-04-06T06:44:02.546Z,8.70
2023-04-06T06:46:29.467Z,8.30
2023-04-06T06:48:56.447Z,8.77
2023-04-06T06:51:23.288Z,8.20
2023-04-06T06:53:50.144Z,7.30
2023-04-06T06:56:17.031Z,7.83
2023-04-06T06:58:43.903Z,8.30
2023-04-06T07:01:10.930Z,8.90
2023-04-06T07:03:38.617Z,8.43
2023-04-06T07:06:05.806Z,7.33
2023-04-06T07:08:32.625Z,8.33
2023-04-06T07:10:59.387Z,8.10
2023-04-06T07:13:28.478Z,8.60
2023-04-06T07:15:57.755Z,8.87
2023-04-06T07:18:24.737Z,8.73
2023-04-06T07:20:51.630Z,8.00
2023-04-06T07:23:18.962Z,8.13
2023-04-06T07:25:46.259Z,8.13
2023-04-06T07:28:12.947Z,8.43
2023-04-06T07:30:40.373Z,7.53
2023-04-06T07:33:09.621Z,8.23
2023-04-06T07:35:37.990Z,8.30
2023-04-06T07:38:06.420Z,8.50
2023-04-06T07:40:34.567Z,8.80
2023-04-06T07:43:03.178Z,8.40
2023-04-06T07:45:30.499Z,8.73
2023-04-06T07:47:59.256Z,8.73
2023-04-06T07:50:27.698Z,8.30
2023-04-06T07:52:55.786Z,8.80
2023-04-06T07:55:23.038Z,9.47
2023-04-06T07:57:49.846Z,8.67
2023-04-06T08:00:16.932Z,8.33
2023-04-06T08:02:43.870Z,7.17
2023-04-06T08:05:11.097Z,8.30
2023-04-06T08:07:38.541Z,7.57
2023-04-06T08:10:05.558Z,7.27
2023-04-06T08:12:33.364Z,8.23
2023-04-06T08:15:00.861Z,8.10
2023-04-06T08:17:31.445Z,8.17
2023-04-06T08:19:58.399Z,8.47
2023-04-06T08:22:25.764Z,8.67
2023-04-06T08:24:52.946Z,7.87
2023-04-06T08:27:19.696Z,7.80
2023-04-06T08:29:46.656Z,8.20
2023-04-06T08:32:13.506Z,8.33
2023-04-06T08:34:40.423Z,8.10
2023-04-06T08:37:07.516Z,7.87
2023-04-06T08:39:35.042Z,8.70
2023-04-06T08:42:04.246Z,8.37
2023-04-06T08:44:33.186Z,8.50
2023-04-06T08:47:00.953Z,7.93
2023-04-06T08:49:28.603Z,7.90
2023-04-06T08:51:56.155Z,7.67
2023-04-06T08:54:23.021Z,7.33
2023-04-06T08:56:50.082Z,8.47
2023-04-06T08:59:17.003Z,8.37
2023-04-06T09:01:44.144Z,7.73
2023-04-06T09:04:12.705Z,7.73
2023-04-06T09:06:41.840Z,7.87
2023-04-06T09:09:09.017Z,8.50
2023-04-06T09:11:43.703Z,7.80
2023-04-06T09:14:10.809Z,7.47
2023-04-06T09:16:42.408Z,8.67
2023-04-06T09:19:09.471Z,8.20
2023-04-06T09:21:37.058Z,8.77
2023-04-06T09:24:04.719Z,7.87
2023-04-06T09:26:31.724Z,7.53
2023-04-06T09:29:00.657Z,8.57
2023-04-06T09:31:28.582Z,8.90
2023-04-06T09:33:55.654Z,7.80
2023-04-06T09:36:43.427Z,8.80
2023-04-06T09:39:10.281Z,8.70
2023-04-06T09:41:37.721Z,8.40
2023-04-06T09:44:07.644Z,8.67
2023-04-06T09:46:50.555Z,7.40
2023-04-06T09:49:23.171Z,9.37
2023-04-06T09:51:54.541Z,9.27
2023-04-06T09:54:22.846Z,8.60
2023-04-06T09:56:58.477Z,8.93
2023-04-06T09:59:32.620Z,9.67
2023-04-06T10:02:00.134Z,9.57
2023-04-06T10:04:36.445Z,9.77
2023-04-06T10:07:03.453Z,8.57
2023-04-06T10:09:37.125Z,9.47
2023-04-06T10:12:04.983Z,10.30
2023-04-06T10:14:34.152Z,10.67
2023-04-06T10:17:02.009Z,8.47
2023-04-06T10:19:30.643Z,9.37
2023-04-06T10:21:59.831Z,6.90
2023-04-06T10:24:26.579Z,8.37
2023-04-06T10:26:58.266Z,7.50
2023-04-06T10:29:25.396Z,9.10
2023-04-06T10:31:52.201Z,8.57
2023-04-06T10:34:18.976Z,8.30
2023-04-06T10:36:46.024Z,8.03
2023-04-06T10:39:12.827Z,7.67
2023-04-06T10:41:43.550Z,7.23
2023-04-06T10:44:18.372Z,7.30
2023-04-06T10:46:53.382Z,6.43
2023-04-06T10:49:20.125Z,6.73
2023-04-06T10:51:52.103Z,7.17
2023-04-06T10:54:19.420Z,6.67
2023-04-06T10:56:46.169Z,7.40
2023-04-06T10:59:12.914Z,6.67
2023-04-06T11:01:39.731Z,6.90
2023-04-06T11:04:06.603Z,7.47
2023-04-06T11:06:33.670Z,7.23
2023-04-06T11:09:01.228Z,6.97
2023-04-06T11:11:28.312Z,5.53
2023-04-06T11:13:56.163Z,5.10
2023-04-06T11:16:24.202Z,5.23
2023-04-06T11:18:55.474Z,5.20
2023-04-06T11:21:33.407Z,5.50
2023-04-06T11:24:09.492Z,6.50
2023-04-06T11:26:44.979Z,7.03
2023-04-06T11:29:12.717Z,6.77
2023-04-06T11:32:03.005Z,7.03
2023-04-06T11:34:31.297Z,6.37
2023-04-06T11:37:02.935Z,6.30
2023-04-06T11:39:30.180Z,7.30
2023-04-06T11:44:52.355Z,7.70
2023-04-06T11:47:19.501Z,7.50
2023-04-06T11:49:46.548Z,7.80
2023-04-06T11:52:20.686Z,7.37
2023-04-06T11:54:48.883Z,6.43
2023-04-06T11:57:16.493Z,6.50
2023-04-06T11:59:43.399Z,6.00
2023-04-06T12:02:10.661Z,5.37
2023-04-06T12:04:37.582Z,6.13
2023-04-06T12:07:05.092Z,5.07
2023-04-06T12:09:32.111Z,6.23
2023-04-06T12:11:59.083Z,6.17
2023-04-06T12:14:25.942Z,5.87
2023-04-06T12:16:52.709Z,6.00
2023-04-06T12:19:19.475Z,8.20
2023-04-06T12:21:46.243Z,7.33
2023-04-06T12:24:13.101Z,7.43
2023-04-06T12:26:39.911Z,7.83
2023-04-06T12:29:09.462Z,7.47
2023-04-06T12:31:37.077Z,7.37
2023-04-06T12:34:04.548Z,7.50
2023-04-06T12:36:32.559Z,7.40
2023-04-06T12:38:59.821Z,8.00
2023-04-06T12:41:26.737Z,9.07
2023-04-06T12:43:53.645Z,7.70
2023-04-06T12:46:21.991Z,8.73
2023-04-06T12:48:49.219Z,7.73
2023-04-06T12:51:16.324Z,7.83
2023-04-06T12:53:43.553Z,7.80
2023-04-06T12:56:18.525Z,7.53
2023-04-06T12:58:45.962Z,7.87
2023-04-06T13:01:15.676Z,8.67
2023-04-06T13:03:42.610Z,8.07
2023-04-06T13:06:09.715Z,18.70
2023-04-06T13:08:38.685Z,10.43
2023-04-06T13:11:06.138Z,9.93
2023-04-06T13:13:32.967Z,10.17
2023-04-06T13:16:04.736Z,9.80
2023-04-06T13:18:32.600Z,11.37
2023-04-06T13:21:00.725Z,7.97
2023-04-06T13:23:27.740Z,8.47
2023-04-06T13:26:06.054Z,8.33
2023-04-06T13:28:33.542Z,11.33
2023-04-06T13:31:01.576Z,8.37
2023-04-06T13:33:28.516Z,7.37
2023-04-06T13:35:56.280Z,7.30
2023-04-06T13:38:25.274Z,7.57
2023-04-06T13:40:52.192Z,7.00
2023-04-06T13:43:22.035Z,11.80
2023-04-06T13:45:52.739Z,10.43
2023-04-06T13:48:20.010Z,15.57
2023-04-06T13:50:49.747Z,14.40
2023-04-06T13:53:16.774Z,11.37
2023-04-06T13:55:44.216Z,8.30
2023-04-06T13:58:11.039Z,7.07
2023-04-06T14:00:38.157Z,6.00
2023-04-06T14:03:05.216Z,7.23
2023-04-06T14:05:33.384Z,7.00
2023-04-06T14:08:00.138Z,6.60
2023-04-06T14:10:29.072Z,10.50
2023-04-06T14:12:56.971Z,11.27
2023-04-06T14:15:25.172Z,7.67
2023-04-06T14:17:52.740Z,7.33
2023-04-06T14:20:19.790Z,7.87
2023-04-06T14:22:47.814Z,8.73
2023-04-06T14:25:14.763Z,6.40
2023-04-06T14:27:41.662Z,5.40
2023-04-06T14:30:09.359Z,7.87
2023-04-06T14:32:37.837Z,6.07
2023-04-06T14:35:07.096Z,6.23
2023-04-06T14:37:34.444Z,9.27
2023-04-06T14:40:01.271Z,8.70
2023-04-06T14:42:28.065Z,7.00
2023-04-06T14:44:54.979Z,7.03
2023-04-06T14:47:22.714Z,7.80
2023-04-06T14:49:54.246Z,9.23
2023-04-06T14:55:42.460Z,5.77
2023-04-06T14:58:09.339Z,5.60
2023-04-06T15:00:36.067Z,6.23
2023-04-06T15:03:03.388Z,5.07
2023-04-06T15:05:31.788Z,6.80
2023-04-06T15:07:58.680Z,6.97
2023-04-06T15:10:25.617Z,6.27
2023-04-06T15:12:52.465Z,6.20
2023-04-06T15:15:19.248Z,7.10
2023-04-06T15:17:46.090Z,6.30
2023-04-06T15:20:13.304Z,4.93
2023-04-06T15:22:40.569Z,5.50
2023-04-06T15:25:07.509Z,6.40
2023-04-06T15:27:34.823Z,6.17
2023-04-06T15:30:01.873Z,5.60
2023-04-06T15:32:28.616Z,5.07
2023-04-06T15:34:57.048Z,4.00
2023-04-06T15:37:23.750Z,4.07
2023-04-06T15:39:50.470Z,4.07
2023-04-06T15:42:17.278Z,3.60
2023-04-06T15:44:44.217Z,3.90
2023-04-06T15:47:11.297Z,4.30
2023-04-06T15:49:38.077Z,3.80
2023-04-06T15:52:04.780Z,3.40
2023-04-06T15:54:31.430Z,3.43
2023-04-06T15:56:58.221Z,2.70
2023-04-06T15:59:24.863Z,3.17
2023-04-06T16:01:51.683Z,3.10
2023-04-06T16:04:18.532Z,4.00
2023-04-06T16:06:45.512Z,3.37
2023-04-06T16:09:12.233Z,3.10
2023-04-06T16:11:39.106Z,3.17
2023-04-06T16:14:05.814Z,4.27
2023-04-06T16:16:32.673Z,3.37
2023-04-06T16:18:59.614Z,3.10
2023-04-06T16:21:28.037Z,2.87
2023-04-06T16:23:54.911Z,3.57
2023-04-06T16:26:21.972Z,3.20
2023-04-06T16:28:49.619Z,3.93
2023-04-06T16:31:23.609Z,3.50
2023-04-06T16:33:52.216Z,2.67
2023-04-06T16:36:23.055Z,3.33
2023-04-06T16:38:50.145Z,6.63
2023-04-06T16:41:17.039Z,3.67
2023-04-06T16:43:44.447Z,9.93
2023-04-06T16:46:11.365Z,4.80
2023-04-06T16:48:38.213Z,15.90
2023-04-06T16:51:05.922Z,3.23
2023-04-06T16:53:33.277Z,3.10
2023-04-06T16:55:59.944Z,2.97
2023-04-06T16:58:26.653Z,4.77
2023-04-06T17:00:53.539Z,3.23
2023-04-06T17:03:20.658Z,2.97
2023-04-06T17:05:47.449Z,22.30
2023-04-06T17:08:14.174Z,4.37
2023-04-06T17:10:51.642Z,4.37
2023-04-06T17:13:25.260Z,2.53
2023-04-06T17:15:52.000Z,3.10
2023-04-06T17:18:18.857Z,3.27
2023-04-06T17:20:46.857Z,3.23
2023-04-06T17:23:13.617Z,2.63
2023-04-06T17:25:40.416Z,2.60
2023-04-06T17:28:07.488Z,2.77
2023-04-06T17:30:34.644Z,2.83
2023-04-06T17:33:01.573Z,2.80
2023-04-06T17:35:28.399Z,3.53
2023-04-06T17:37:55.150Z,2.33
2023-04-06T17:40:21.846Z,5.50
2023-04-06T17:42:48.632Z,2.97
2023-04-06T17:45:18.431Z,3.97
2023-04-06T17:47:45.993Z,2.90
2023-04-06T17:50:12.831Z,2.57
2023-04-06T17:52:39.610Z,3.27
2023-04-06T17:55:06.545Z,3.37
2023-04-06T17:57:33.378Z,6.27
2023-04-06T18:00:00.132Z,3.53
2023-04-06T18:02:27.112Z,3.07
2023-04-06T18:04:55.452Z,2.77
2023-04-06T18:07:22.305Z,2.80
2023-04-06T18:09:49.227Z,2.80
2023-04-06T18:12:16.112Z,3.10
2023-04-06T18:14:43.168Z,2.63
2023-04-06T18:17:09.975Z,3.00
2023-04-06T18:19:36.780Z,3.13
2023-04-06T18:22:04.612Z,2.90
2023-04-06T18:24:42.094Z,3.00
2023-04-06T18:27:10.556Z,3.07
2023-04-06T18:29:37.557Z,2.93
2023-04-06T18:32:05.770Z,3.30
2023-04-06T18:34:32.789Z,3.40
2023-04-06T18:37:01.693Z,3.87
2023-04-06T18:39:28.740Z,3.43
2023-04-06T18:41:56.155Z,4.10
2023-04-06T18:44:23.191Z,3.40
2023-04-06T18:46:51.048Z,3.97
2023-04-06T18:49:20.116Z,4.50
2023-04-06T18:51:46.917Z,3.93
2023-04-06T18:54:13.572Z,4.40
2023-04-06T18:56:42.163Z,4.07
2023-04-06T18:59:13.604Z,4.40
2023-04-06T19:01:43.920Z,4.73
2023-04-06T19:04:11.988Z,4.63
2023-04-06T19:06:39.145Z,4.70
2023-04-06T19:09:06.116Z,5.00
2023-04-06T19:11:32.835Z,4.97
2023-04-06T19:14:00.638Z,5.07
2023-04-06T19:16:27.697Z,5.27
2023-04-06T19:18:54.966Z,5.20
2023-04-06T19:21:22.727Z,5.67
2023-04-06T19:23:51.717Z,5.50
2023-04-06T19:26:19.791Z,6.33
2023-04-06T19:28:47.266Z,6.20
2023-04-06T19:31:14.971Z,6.40
2023-04-06T19:33:42.285Z,5.60
2023-04-06T19:36:09.583Z,5.77
2023-04-06T19:38:36.944Z,6.20
2023-04-06T19:41:03.968Z,6.00
2023-04-06T19:43:30.846Z,6.13
2023-04-06T19:45:57.726Z,6.40
2023-04-06T19:48:24.704Z,6.10
2023-04-06T19:50:55.184Z,6.07
2023-04-06T19:53:23.404Z,6.37
2023-04-06T19:55:50.557Z,6.73
2023-04-06T19:58:17.451Z,7.20
2023-04-06T20:00:44.813Z,6.83
2023-04-06T20:03:11.829Z,6.37
2023-04-06T20:05:38.650Z,6.33
2023-04-06T20:08:05.496Z,7.37
2023-04-06T20:10:32.678Z,7.17
2023-04-06T20:13:01.617Z,7.50
2023-04-06T20:15:28.549Z,6.90
2023-04-06T20:17:55.687Z,7.13
2023-04-06T20:20:22.545Z,7.40
2023-04-06T20:22:50.348Z,6.87
2023-04-06T20:25:18.313Z,6.80
2023-04-06T20:27:46.140Z,6.90
2023-04-06T20:30:14.203Z,6.47
2023-04-06T20:32:41.221Z,6.57
2023-04-06T20:35:08.181Z,6.90
2023-04-06T20:37:36.006Z,6.10
2023-04-06T20:40:04.106Z,6.50
2023-04-06T20:42:34.007Z,6.13
2023-04-06T20:45:02.106Z,6.80
2023-04-06T20:47:28.952Z,7.23
2023-04-06T20:49:55.793Z,7.13
2023-04-06T20:52:22.981Z,6.73
2023-04-06T20:54:51.040Z,6.57
2023-04-06T20:57:17.873Z,7.03
2023-04-06T20:59:47.985Z,6.67
2023-04-06T21:02:15.017Z,6.67
2023-04-06T21:04:43.005Z,6.20
2023-04-06T21:07:10.583Z,7.10
2023-04-06T21:09:38.289Z,7.10
2023-04-06T21:12:05.791Z,6.80
2023-04-06T21:14:32.624Z,6.33
2023-04-06T21:16:59.946Z,7.03
2023-04-06T21:19:29.852Z,6.90
2023-04-06T21:21:56.689Z,7.30
2023-04-06T21:24:23.470Z,6.57
2023-04-06T21:26:50.187Z,6.97
2023-04-06T21:29:16.927Z,6.80
2023-04-06T21:31:43.700Z,6.83
2023-04-06T21:34:11.505Z,7.17
2023-04-06T21:36:38.628Z,7.53
2023-04-06T21:39:06.219Z,7.60
2023-04-06T21:41:33.493Z,7.33
2023-04-06T21:44:00.606Z,8.10
2023-04-06T21:46:27.487Z,7.10
2023-04-06T21:48:54.295Z,7.50
2023-04-06T21:51:22.267Z,7.93
2023-04-06T21:53:49.068Z,7.60
2023-04-06T21:56:20.013Z,7.43
2023-04-06T21:58:46.883Z,7.70
2023-04-06T22:01:13.648Z,7.77
2023-04-06T22:03:40.855Z,7.30
2023-04-06T22:06:08.004Z,7.70
2023-04-06T22:08:35.211Z,7.33
2023-04-06T22:11:07.404Z,7.67
2023-04-06T22:13:34.651Z,8.03
2023-04-06T22:16:01.408Z,7.17
2023-04-06T22:18:28.320Z,7.50
2023-04-06T22:20:55.363Z,7.27
2023-04-06T22:23:22.089Z,7.30
2023-04-06T22:25:49.149Z,7.00
2023-04-06T22:28:16.269Z,7.03
2023-04-06T22:30:42.962Z,7.40
2023-04-06T22:33:09.810Z,8.03
2023-04-06T22:35:36.872Z,8.17
2023-04-06T22:38:03.829Z,8.30
2023-04-06T22:40:30.672Z,8.93
2023-04-06T22:42:57.466Z,9.00
2023-04-06T22:45:24.189Z,9.23
2023-04-06T22:47:51.016Z,9.57
2023-04-06T22:50:18.125Z,9.20
2023-04-06T22:52:45.047Z,10.60
2023-04-06T22:55:11.847Z,9.30
2023-04-06T22:57:38.552Z,9.93
2023-04-06T23:00:06.144Z,10.43
2023-04-06T23:02:33.054Z,10.70
2023-04-06T23:04:59.850Z,11.87
2023-04-06T23:07:26.684Z,11.27
2023-04-06T23:09:54.134Z,11.23
2023-04-06T23:12:21.406Z,11.53
2023-04-06T23:14:48.157Z,11.73
2023-04-06T23:17:15.316Z,12.90
2023-04-06T23:19:42.062Z,13.27
2023-04-06T23:22:08.712Z,11.40
2023-04-06T23:24:35.598Z,12.77
2023-04-06T23:27:02.329Z,12.63
2023-04-06T23:29:29.158Z,11.80
2023-04-06T23:31:56.113Z,13.67
2023-04-06T23:34:22.833Z,12.47
2023-04-06T23:36:49.633Z,13.17
2023-04-06T23:39:16.492Z,13.90
2023-04-06T23:41:43.307Z,13.73
2023-04-06T23:44:10.048Z,13.03
2023-04-06T23:46:36.778Z,13.60
2023-04-06T23:49:03.542Z,13.17
2023-04-06T23:51:30.279Z,14.03
2023-04-06T23:53:58.129Z,14.80
2023-04-06T23:56:25.145Z,13.93
2023-04-06T23:58:52.128Z,13.40
